createdAt,value
2023-02-26T00:00:24.641Z,1.15
2023-02-26T00:03:10.690Z,1.38
2023-02-26T00:06:01.305Z,1.40
2023-02-26T00:08:47.885Z,1.10
2023-02-26T00:11:34.021Z,1.30
2023-02-26T00:14:20.545Z,1.35
2023-02-26T00:17:37.408Z,1.23
2023-02-26T00:20:23.752Z,1.60
2023-02-26T00:23:17.644Z,1.13
2023-02-26T00:26:03.554Z,1.38
2023-02-26T00:28:50.150Z,1.27
2023-02-26T00:31:36.128Z,1.70
2023-02-26T00:34:22.720Z,1.20
2023-02-26T00:37:20.686Z,1.38
2023-02-26T00:40:28.379Z,1.15
2023-02-26T00:43:24.206Z,1.13
2023-02-26T00:46:36.929Z,0.68
2023-02-26T00:49:44.553Z,1.08
2023-02-26T00:52:53.115Z,0.85
2023-02-26T00:55:39.624Z,0.90
2023-02-26T00:58:25.745Z,1.25
2023-02-26T01:01:11.880Z,1.10
2023-02-26T01:03:58.330Z,0.60
2023-02-26T01:06:47.782Z,1.10
2023-02-26T01:09:38.120Z,0.98
2023-02-26T01:12:24.643Z,1.30
2023-02-26T01:15:11.419Z,1.10
2023-02-26T01:18:09.915Z,0.90
2023-02-26T01:21:04.101Z,1.10
2023-02-26T01:23:52.118Z,0.82
2023-02-26T01:26:38.190Z,0.90
2023-02-26T01:29:25.640Z,1.00
2023-02-26T01:32:18.850Z,1.20
2023-02-26T01:35:32.623Z,1.00
2023-02-26T01:38:39.180Z,1.13
2023-02-26T01:41:46.637Z,1.20
2023-02-26T01:44:36.459Z,1.00
2023-02-26T01:47:30.838Z,1.50
2023-02-26T01:50:21.852Z,1.40
2023-02-26T01:53:21.399Z,1.08
2023-02-26T01:56:17.332Z,1.10
2023-02-26T01:59:06.023Z,1.33
2023-02-26T02:01:54.219Z,1.25
2023-02-26T02:04:42.050Z,1.08
2023-02-26T02:07:29.669Z,1.02
2023-02-26T02:10:15.883Z,1.13
2023-02-26T02:13:14.272Z,0.75
2023-02-26T02:16:00.155Z,0.85
2023-02-26T02:18:54.141Z,1.23
2023-02-26T02:22:10.792Z,1.10
2023-02-26T02:25:19.066Z,1.20
2023-02-26T02:28:36.621Z,1.10
2023-02-26T02:31:34.785Z,1.17
2023-02-26T02:34:26.134Z,1.45
2023-02-26T02:37:35.457Z,1.20
2023-02-26T02:40:34.978Z,1.08
2023-02-26T02:43:27.934Z,1.30
2023-02-26T02:46:20.131Z,0.95
2023-02-26T02:49:14.502Z,1.17
2023-02-26T02:52:08.147Z,0.90
2023-02-26T02:55:01.911Z,1.08
2023-02-26T02:58:00.876Z,0.70
2023-02-26T03:00:52.724Z,0.70
2023-02-26T03:04:02.463Z,1.20
2023-02-26T03:06:50.510Z,1.15
2023-02-26T03:09:38.375Z,1.10
2023-02-26T03:12:27.623Z,1.10
2023-02-26T03:15:14.921Z,0.90
2023-02-26T03:18:16.211Z,1.10
2023-02-26T03:21:11.060Z,1.02
2023-02-26T03:24:05.837Z,1.20
2023-02-26T03:27:22.012Z,0.98
2023-02-26T03:30:19.183Z,1.05
2023-02-26T03:33:31.758Z,1.17
2023-02-26T03:36:47.124Z,1.10
2023-02-26T03:39:51.375Z,1.33
2023-02-26T03:42:54.029Z,1.10
2023-02-26T03:45:43.002Z,1.10
2023-02-26T03:48:31.230Z,1.10
2023-02-26T03:51:19.009Z,0.95
2023-02-26T03:54:30.797Z,1.23
2023-02-26T03:57:36.673Z,0.90
2023-02-26T04:00:50.684Z,0.82
2023-02-26T04:03:59.965Z,1.02
2023-02-26T04:06:47.479Z,0.98
2023-02-26T04:09:33.404Z,0.93
2023-02-26T04:12:24.480Z,1.60
2023-02-26T04:15:13.404Z,0.90
2023-02-26T04:18:00.700Z,1.08
2023-02-26T04:20:47.673Z,1.02
2023-02-26T04:23:33.816Z,0.68
2023-02-26T04:26:20.617Z,0.90
2023-02-26T04:29:06.585Z,1.02
2023-02-26T04:31:53.668Z,1.13
2023-02-26T04:34:40.148Z,1.10
2023-02-26T04:37:26.936Z,0.80
2023-02-26T04:40:13.376Z,0.93
2023-02-26T04:42:59.641Z,1.02
2023-02-26T04:45:50.160Z,1.10
2023-02-26T04:48:36.110Z,1.02
2023-02-26T04:51:22.287Z,1.25
2023-02-26T04:54:10.302Z,0.90
2023-02-26T04:56:56.192Z,1.25
2023-02-26T04:59:42.241Z,1.08
2023-02-26T05:02:28.697Z,1.00
2023-02-26T05:05:14.598Z,0.90
2023-02-26T05:08:02.096Z,1.08
2023-02-26T05:10:49.240Z,0.80
2023-02-26T05:13:36.041Z,1.10
2023-02-26T05:16:22.503Z,0.95
2023-02-26T05:19:08.691Z,1.00
2023-02-26T05:21:54.600Z,1.00
2023-02-26T05:24:40.757Z,1.48
2023-02-26T05:27:27.180Z,1.35
2023-02-26T05:30:15.351Z,1.08
2023-02-26T05:33:02.884Z,0.95
2023-02-26T05:35:49.106Z,1.13
2023-02-26T05:38:35.582Z,1.00
2023-02-26T05:41:21.720Z,0.90
2023-02-26T05:44:09.086Z,1.23
2023-02-26T05:46:55.644Z,0.90
2023-02-26T05:49:41.840Z,0.80
2023-02-26T05:52:27.821Z,0.80
2023-02-26T05:55:13.887Z,1.50
2023-02-26T05:57:59.896Z,0.77
2023-02-26T06:00:46.207Z,1.10
2023-02-26T06:03:32.328Z,1.42
2023-02-26T06:06:18.564Z,0.88
2023-02-26T06:09:05.044Z,0.85
2023-02-26T06:11:51.271Z,1.05
2023-02-26T06:14:37.366Z,0.85
2023-02-26T06:17:23.267Z,1.05
2023-02-26T06:20:10.341Z,0.90
2023-02-26T06:25:42.683Z,0.38
2023-02-26T06:28:28.643Z,0.80
2023-02-26T06:31:14.630Z,0.63
2023-02-26T06:34:00.388Z,1.08
2023-02-26T06:36:46.547Z,0.75
2023-02-26T06:39:32.681Z,1.17
2023-02-26T06:42:20.157Z,1.20
2023-02-26T06:45:07.318Z,1.10
2023-02-26T06:47:54.484Z,0.77
2023-02-26T06:50:40.397Z,1.42
2023-02-26T06:53:26.492Z,0.93
2023-02-26T06:56:12.421Z,1.00
2023-02-26T06:58:58.855Z,1.13
2023-02-26T07:01:45.053Z,1.10
2023-02-26T07:04:30.960Z,0.80
2023-02-26T07:07:17.051Z,1.08
2023-02-26T07:10:03.568Z,0.93
2023-02-26T07:12:49.626Z,0.82
2023-02-26T07:15:35.964Z,0.88
2023-02-26T07:18:21.984Z,1.40
2023-02-26T07:21:07.854Z,1.50
2023-02-26T07:23:53.765Z,1.40
2023-02-26T07:26:40.188Z,1.33
2023-02-26T07:29:26.122Z,1.52
2023-02-26T07:32:12.197Z,1.08
2023-02-26T07:34:58.343Z,1.55
2023-02-26T07:37:44.538Z,1.50
2023-02-26T07:40:30.765Z,1.08
2023-02-26T07:43:17.193Z,1.23
2023-02-26T07:46:04.498Z,1.27
2023-02-26T07:48:50.422Z,1.30
2023-02-26T07:51:37.173Z,1.30
2023-02-26T07:54:23.200Z,1.20
2023-02-26T07:57:09.866Z,1.55
2023-02-26T07:59:55.916Z,1.50
2023-02-26T08:02:42.179Z,1.77
2023-02-26T08:05:30.149Z,1.40
2023-02-26T08:08:16.423Z,1.23
2023-02-26T08:11:03.499Z,1.20
2023-02-26T08:13:49.287Z,1.23
2023-02-26T08:16:35.127Z,1.33
2023-02-26T08:19:21.201Z,1.33
2023-02-26T08:22:07.420Z,1.15
2023-02-26T08:24:53.754Z,1.27
2023-02-26T08:27:40.031Z,1.35
2023-02-26T08:30:26.134Z,1.40
2023-02-26T08:33:12.444Z,1.67
2023-02-26T08:35:59.086Z,1.73
2023-02-26T08:38:45.254Z,1.80
2023-02-26T08:41:32.617Z,1.42
2023-02-26T08:44:18.764Z,1.23
2023-02-26T08:47:04.603Z,1.40
2023-02-26T08:49:50.730Z,1.40
2023-02-26T08:52:36.585Z,1.20
2023-02-26T08:55:23.228Z,1.55
2023-02-26T08:58:09.485Z,1.60
2023-02-26T09:00:55.337Z,1.50
2023-02-26T09:03:41.329Z,1.17
2023-02-26T09:06:27.810Z,1.50
2023-02-26T09:09:14.368Z,1.70
2023-02-26T09:12:00.825Z,1.45
2023-02-26T09:14:46.908Z,1.30
2023-02-26T09:17:32.865Z,1.30
2023-02-26T09:20:19.114Z,1.23
2023-02-26T09:23:05.358Z,1.48
2023-02-26T09:25:56.069Z,1.48
2023-02-26T09:28:42.476Z,1.50
2023-02-26T09:31:28.845Z,1.60
2023-02-26T09:34:15.504Z,1.40
2023-02-26T09:37:03.439Z,1.40
2023-02-26T09:39:49.578Z,1.40
2023-02-26T09:42:49.235Z,1.52
2023-02-26T09:45:38.344Z,1.55
2023-02-26T09:48:28.284Z,1.58
2023-02-26T09:51:21.096Z,1.60
2023-02-26T09:54:17.007Z,2.00
2023-02-26T09:57:06.019Z,1.67
2023-02-26T09:59:52.285Z,1.70
2023-02-26T10:02:49.455Z,1.67
2023-02-26T10:05:55.687Z,1.50
2023-02-26T10:09:15.553Z,1.50
2023-02-26T10:12:16.199Z,1.83
2023-02-26T10:15:10.624Z,1.63
2023-02-26T10:18:08.808Z,1.55
2023-02-26T10:21:09.515Z,1.52
2023-02-26T10:23:58.905Z,1.75
2023-02-26T10:27:09.622Z,1.73
2023-02-26T10:30:09.365Z,1.58
2023-02-26T10:33:13.881Z,1.70
2023-02-26T10:36:12.699Z,1.67
2023-02-26T10:39:03.824Z,1.95
2023-02-26T10:41:51.392Z,1.85
2023-02-26T10:44:57.152Z,1.63
2023-02-26T10:47:57.626Z,1.60
2023-02-26T10:50:51.655Z,1.77
2023-02-26T10:53:40.445Z,1.70
2023-02-26T10:56:31.197Z,1.90
2023-02-26T10:59:17.564Z,1.73
2023-02-26T11:02:03.475Z,1.73
2023-02-26T11:04:56.498Z,1.77
2023-02-26T11:08:02.336Z,1.55
2023-02-26T11:10:54.499Z,1.88
2023-02-26T11:13:41.612Z,1.80
2023-02-26T11:16:28.884Z,1.83
2023-02-26T11:19:16.694Z,1.80
2023-02-26T11:22:04.625Z,1.55
2023-02-26T11:24:52.319Z,1.80
2023-02-26T11:27:39.278Z,1.58
2023-02-26T11:30:29.676Z,1.83
2023-02-26T11:33:28.965Z,1.70
2023-02-26T11:36:20.752Z,2.03
2023-02-26T11:39:28.391Z,1.70
2023-02-26T11:42:14.888Z,1.55
2023-02-26T11:45:00.881Z,1.52
2023-02-26T11:47:49.228Z,1.50
2023-02-26T11:50:43.507Z,1.50
2023-02-26T11:53:34.550Z,1.70
2023-02-26T11:56:43.585Z,1.55
2023-02-26T11:59:32.927Z,1.60
2023-02-26T12:02:21.839Z,1.38
2023-02-26T12:05:10.668Z,1.67
2023-02-26T12:07:57.060Z,1.60
2023-02-26T12:10:51.424Z,1.40
2023-02-26T12:13:58.813Z,1.50
2023-02-26T12:17:22.746Z,1.83
2023-02-26T12:20:38.435Z,1.60
2023-02-26T12:23:26.067Z,1.80
2023-02-26T12:26:29.829Z,1.50
2023-02-26T12:29:34.826Z,1.73
2023-02-26T12:32:59.372Z,1.77
2023-02-26T12:36:21.676Z,1.42
2023-02-26T12:39:23.408Z,1.30
2023-02-26T12:42:47.281Z,1.60
2023-02-26T12:46:01.970Z,1.70
2023-02-26T12:49:11.145Z,1.60
2023-02-26T12:52:20.125Z,1.70
2023-02-26T12:55:17.203Z,1.58
2023-02-26T12:58:34.058Z,1.50
2023-02-26T13:01:26.519Z,1.40
2023-02-26T13:04:57.749Z,1.48
2023-02-26T13:07:52.686Z,1.40
2023-02-26T13:10:57.071Z,1.70
2023-02-26T13:14:19.639Z,1.60
2023-02-26T13:17:20.155Z,1.50
2023-02-26T13:20:27.607Z,1.70
2023-02-26T13:23:21.050Z,1.30
2023-02-26T13:26:13.029Z,1.60
2023-02-26T13:29:10.016Z,1.60
2023-02-26T13:31:59.277Z,1.70
2023-02-26T13:34:52.879Z,1.85
2023-02-26T13:37:44.340Z,1.58
2023-02-26T13:40:54.079Z,1.58
2023-02-26T13:44:17.272Z,1.55
2023-02-26T13:47:42.796Z,1.48
2023-02-26T13:50:43.971Z,1.80
2023-02-26T13:53:33.708Z,1.35
2023-02-26T13:56:31.942Z,1.50
2023-02-26T13:59:37.857Z,1.70
2023-02-26T14:02:47.894Z,1.55
2023-02-26T14:05:35.791Z,1.60
2023-02-26T14:08:44.076Z,1.40
2023-02-26T14:11:37.783Z,1.60
2023-02-26T14:14:29.766Z,1.80
2023-02-26T14:17:15.840Z,1.45
2023-02-26T14:20:08.920Z,1.30
2023-02-26T14:23:10.935Z,1.38
2023-02-26T14:26:05.133Z,1.42
2023-02-26T14:29:06.819Z,1.38
2023-02-26T14:32:14.645Z,1.52
2023-02-26T14:35:06.311Z,1.50
2023-02-26T14:38:06.157Z,1.35
2023-02-26T14:41:03.171Z,1.40
2023-02-26T14:44:03.789Z,1.45
2023-02-26T14:46:51.978Z,1.40
2023-02-26T14:49:41.896Z,1.35
2023-02-26T14:52:49.250Z,1.60
2023-02-26T14:55:46.144Z,0.90
2023-02-26T14:59:10.194Z,1.23
2023-02-26T15:02:05.880Z,1.30
2023-02-26T15:05:12.423Z,1.25
2023-02-26T15:08:20.058Z,1.50
2023-02-26T15:11:33.515Z,1.60
2023-02-26T15:14:46.757Z,1.40
2023-02-26T15:18:14.451Z,1.40
2023-02-26T15:21:03.779Z,1.40
2023-02-26T15:23:55.431Z,1.50
2023-02-26T15:26:54.032Z,1.60
2023-02-26T15:29:41.419Z,1.40
2023-02-26T15:32:30.755Z,1.38
2023-02-26T15:35:20.690Z,1.48
2023-02-26T15:38:06.835Z,1.60
2023-02-26T15:40:58.238Z,1.40
2023-02-26T15:43:50.139Z,1.23
2023-02-26T15:46:44.206Z,1.60
2023-02-26T15:49:40.099Z,1.50
2023-02-26T15:52:28.050Z,1.52
2023-02-26T15:55:18.009Z,1.20
2023-02-26T15:58:06.565Z,1.50
2023-02-26T16:00:56.162Z,1.40
2023-02-26T16:03:42.807Z,1.40
2023-02-26T16:06:37.610Z,1.40
2023-02-26T16:09:34.599Z,1.35
2023-02-26T16:12:43.738Z,1.40
2023-02-26T16:15:37.118Z,1.33
2023-02-26T16:18:26.206Z,1.45
2023-02-26T16:21:28.891Z,1.40
2023-02-26T16:24:19.250Z,1.60
2023-02-26T16:27:09.792Z,1.38
2023-02-26T16:29:59.397Z,1.52
2023-02-26T16:32:47.406Z,1.50
2023-02-26T16:35:39.155Z,1.40
2023-02-26T16:38:26.518Z,1.15
2023-02-26T16:41:14.288Z,1.30
2023-02-26T16:44:03.392Z,1.30
2023-02-26T16:46:52.808Z,1.15
2023-02-26T16:49:41.473Z,1.30
2023-02-26T16:52:28.257Z,1.20
2023-02-26T16:55:18.414Z,1.38
2023-02-26T16:58:07.849Z,1.40
2023-02-26T17:01:09.473Z,1.27
2023-02-26T17:04:02.228Z,1.40
2023-02-26T17:06:48.766Z,1.30
2023-02-26T17:09:40.792Z,1.40
2023-02-26T17:12:42.909Z,1.30
2023-02-26T17:15:35.694Z,1.38
2023-02-26T17:18:21.950Z,1.65
2023-02-26T17:21:10.048Z,1.02
2023-02-26T17:23:56.432Z,1.30
2023-02-26T17:26:43.109Z,1.23
2023-02-26T17:29:37.179Z,1.20
2023-02-26T17:32:27.117Z,1.42
2023-02-26T17:35:18.806Z,1.23
2023-02-26T17:38:04.925Z,1.50
2023-02-26T17:40:54.347Z,1.20
2023-02-26T17:43:40.278Z,1.20
2023-02-26T17:46:26.104Z,1.38
2023-02-26T17:49:12.712Z,1.52
2023-02-26T17:51:58.934Z,1.50
2023-02-26T17:54:44.963Z,1.77
2023-02-26T17:57:31.251Z,1.45
2023-02-26T18:00:18.270Z,1.33
2023-02-26T18:03:04.717Z,1.35
2023-02-26T18:05:53.512Z,1.27
2023-02-26T18:08:40.759Z,1.35
2023-02-26T18:11:27.781Z,1.20
2023-02-26T18:14:13.905Z,1.50
2023-02-26T18:17:00.005Z,1.15
2023-02-26T18:19:49.488Z,1.48
2023-02-26T18:22:35.943Z,1.60
2023-02-26T18:25:22.429Z,1.50
2023-02-26T18:28:16.094Z,1.50
2023-02-26T18:31:08.501Z,1.42
2023-02-26T18:33:55.193Z,1.38
2023-02-26T18:36:41.333Z,1.60
2023-02-26T18:39:31.912Z,1.67
2023-02-26T18:42:24.825Z,1.33
2023-02-26T18:45:11.712Z,1.67
2023-02-26T18:47:57.809Z,1.60
2023-02-26T18:50:44.895Z,1.90
2023-02-26T18:53:31.188Z,1.90
2023-02-26T18:56:17.556Z,1.55
2023-02-26T18:59:04.230Z,1.77
2023-02-26T19:01:50.837Z,1.50
2023-02-26T19:04:36.795Z,1.70
2023-02-26T19:07:22.642Z,1.90
2023-02-26T19:10:13.409Z,1.85
2023-02-26T19:12:59.365Z,1.90
2023-02-26T19:15:45.459Z,1.75
2023-02-26T19:18:31.503Z,1.90
2023-02-26T19:21:18.673Z,1.45
2023-02-26T19:24:05.173Z,1.80
2023-02-26T19:26:51.661Z,1.92
2023-02-26T19:29:39.585Z,1.90
2023-02-26T19:32:26.677Z,1.70
2023-02-26T19:37:59.187Z,1.63
2023-02-26T19:40:45.107Z,1.70
2023-02-26T19:43:31.253Z,1.83
2023-02-26T19:46:17.622Z,1.73
2023-02-26T19:49:04.707Z,1.67
2023-02-26T19:51:51.571Z,1.90
2023-02-26T19:54:37.412Z,1.70
2023-02-26T19:57:23.886Z,1.63
2023-02-26T20:00:12.436Z,2.40
2023-02-26T20:02:58.493Z,2.20
2023-02-26T20:05:45.644Z,2.00
2023-02-26T20:08:32.209Z,1.90
2023-02-26T20:11:18.244Z,2.30
2023-02-26T20:14:04.170Z,2.00
2023-02-26T20:16:50.268Z,1.90
2023-02-26T20:19:36.375Z,2.10
2023-02-26T20:22:24.515Z,2.00
2023-02-26T20:25:10.526Z,1.85
2023-02-26T20:27:56.991Z,1.83
2023-02-26T20:30:43.255Z,1.63
2023-02-26T20:33:29.384Z,2.00
2023-02-26T20:36:15.748Z,1.80
2023-02-26T20:39:02.562Z,1.98
2023-02-26T20:41:48.662Z,1.65
2023-02-26T20:44:34.568Z,1.98
2023-02-26T20:47:20.431Z,1.67
2023-02-26T20:50:07.091Z,1.55
2023-02-26T20:52:53.079Z,1.75
2023-02-26T20:55:39.075Z,1.70
2023-02-26T20:58:25.819Z,1.85
2023-02-26T21:01:12.198Z,1.83
2023-02-26T21:03:58.375Z,1.77
2023-02-26T21:06:44.506Z,1.83
2023-02-26T21:09:30.389Z,1.95
2023-02-26T21:12:17.220Z,2.03
2023-02-26T21:15:04.369Z,1.83
2023-02-26T21:17:50.323Z,2.00
2023-02-26T21:20:36.877Z,1.80
2023-02-26T21:23:23.036Z,2.10
2023-02-26T21:26:09.316Z,2.08
2023-02-26T21:28:55.336Z,1.70
2023-02-26T21:31:41.363Z,2.00
2023-02-26T21:34:33.769Z,1.80
2023-02-26T21:37:20.366Z,2.00
2023-02-26T21:40:07.050Z,1.80
2023-02-26T21:42:53.231Z,1.60
2023-02-26T21:45:39.654Z,1.88
2023-02-26T21:48:25.845Z,1.67
2023-02-26T21:51:12.205Z,1.60
2023-02-26T21:53:58.458Z,1.70
2023-02-26T21:56:44.395Z,1.70
2023-02-26T21:59:30.244Z,1.70
2023-02-26T22:02:17.239Z,2.15
2023-02-26T22:05:03.550Z,1.77
2023-02-26T22:07:49.834Z,1.80
2023-02-26T22:10:35.736Z,1.85
2023-02-26T22:13:21.534Z,1.70
2023-02-26T22:16:07.747Z,1.55
2023-02-26T22:18:54.105Z,2.00
2023-02-26T22:21:40.040Z,1.90
2023-02-26T22:24:26.306Z,1.80
2023-02-26T22:27:12.389Z,1.52
2023-02-26T22:29:58.291Z,1.75
2023-02-26T22:32:44.876Z,1.48
2023-02-26T22:35:31.030Z,1.98
2023-02-26T22:38:17.520Z,1.75
2023-02-26T22:41:03.860Z,1.80
2023-02-26T22:43:53.820Z,1.80
2023-02-26T22:46:40.284Z,1.88
2023-02-26T22:49:26.281Z,1.95
2023-02-26T22:52:13.140Z,1.52
2023-02-26T22:54:59.253Z,1.83
2023-02-26T22:57:45.208Z,1.65
2023-02-26T23:00:31.118Z,1.63
2023-02-26T23:03:17.374Z,2.00
2023-02-26T23:06:04.000Z,1.77
2023-02-26T23:08:50.243Z,1.80
2023-02-26T23:11:36.228Z,2.20
2023-02-26T23:14:22.687Z,1.70
2023-02-26T23:17:11.308Z,1.80
2023-02-26T23:19:57.524Z,1.58
2023-02-26T23:22:43.862Z,1.70
2023-02-26T23:25:30.074Z,1.70
2023-02-26T23:28:16.297Z,1.92
2023-02-26T23:31:03.219Z,2.20
2023-02-26T23:33:49.344Z,1.60
2023-02-26T23:36:35.246Z,1.75
2023-02-26T23:39:21.415Z,1.77
2023-02-26T23:42:07.388Z,1.75
2023-02-26T23:44:53.609Z,1.90
2023-02-26T23:47:40.239Z,1.67
2023-02-26T23:50:26.351Z,1.95
2023-02-26T23:53:12.291Z,1.90
2023-02-26T23:55:58.955Z,1.50
2023-02-26T23:58:45.185Z,1.80
